createdAt,value
2019-01-31T00:02:48.076Z,0.50
2019-01-31T00:05:53.551Z,0.40
2019-01-31T00:09:01.984Z,0.40
2019-01-31T00:12:00.477Z,0.40
2019-01-31T00:14:55.889Z,0.30
2019-01-31T00:17:46.456Z,0.30
2019-01-31T00:20:31.765Z,0.10
2019-01-31T00:23:29.209Z,0.20
2019-01-31T00:26:34.284Z,0.20
2019-01-31T00:29:12.923Z,0.10
2019-01-31T00:32:19.292Z,0.10
2019-01-31T00:35:12.448Z,0.20
2019-01-31T00:38:07.838Z,0.30
2019-01-31T00:41:30.131Z,0.10
2019-01-31T00:44:45.655Z,0.00
2019-01-31T00:47:51.971Z,0.10
2019-01-31T00:50:48.694Z,0.10
2019-01-31T00:53:24.846Z,0.10
2019-01-31T00:56:17.353Z,0.00
2019-01-31T00:59:11.100Z,-0.10
2019-01-31T01:02:15.597Z,-0.10
2019-01-31T01:05:20.769Z,-0.10
2019-01-31T01:08:19.198Z,-0.20
2019-01-31T01:11:13.433Z,-0.20
2019-01-31T01:14:20.939Z,-0.20
2019-01-31T01:17:26.325Z,-0.20
2019-01-31T01:20:08.364Z,-0.30
2019-01-31T01:23:17.781Z,-0.30
2019-01-31T01:26:27.110Z,-0.20
2019-01-31T01:29:35.132Z,-0.20
2019-01-31T01:32:43.154Z,-0.20
2019-01-31T01:35:47.960Z,-0.30
2019-01-31T01:38:51.165Z,-0.30
2019-01-31T01:42:13.400Z,-0.30
2019-01-31T01:45:18.332Z,-0.40
2019-01-31T01:47:59.954Z,-0.40
2019-01-31T01:50:52.445Z,-0.50
2019-01-31T01:53:44.379Z,-0.60
2019-01-31T01:56:42.272Z,-0.60
2019-01-31T01:59:26.783Z,-0.50
2019-01-31T02:02:17.237Z,-0.60
2019-01-31T02:05:19.060Z,-0.50
2019-01-31T02:08:08.344Z,-0.60
2019-01-31T02:11:36.599Z,-0.60
2019-01-31T02:14:52.227Z,-0.60
2019-01-31T02:17:40.847Z,-0.60
2019-01-31T02:20:26.218Z,-0.60
2019-01-31T02:23:26.034Z,-0.50
2019-01-31T02:26:04.396Z,-0.50
2019-01-31T02:28:49.487Z,-0.50
2019-01-31T02:31:44.444Z,-0.60
2019-01-31T02:34:29.416Z,-0.70
2019-01-31T02:37:26.471Z,-0.70
2019-01-31T02:40:18.313Z,-0.70
2019-01-31T02:42:59.153Z,-0.70
2019-01-31T02:46:13.569Z,-0.60
2019-01-31T02:49:06.420Z,-0.60
2019-01-31T02:52:12.464Z,-0.60
2019-01-31T02:55:00.450Z,-0.70
2019-01-31T02:58:16.147Z,-0.70
2019-01-31T03:00:54.753Z,-0.60
2019-01-31T03:03:37.307Z,-0.80
2019-01-31T03:06:36.038Z,-0.80
2019-01-31T03:09:32.873Z,-0.80
2019-01-31T03:12:20.608Z,-0.70
2019-01-31T03:15:01.815Z,-0.60
2019-01-31T03:18:03.648Z,-0.80
2019-01-31T03:21:09.727Z,-0.90
2019-01-31T03:24:35.052Z,-0.90
2019-01-31T03:27:39.116Z,-0.90
2019-01-31T03:31:16.091Z,-1.00
2019-01-31T03:34:16.845Z,-1.00
2019-01-31T03:37:19.804Z,-1.10
2019-01-31T03:40:14.320Z,-1.10
2019-01-31T03:43:29.719Z,-1.00
2019-01-31T03:47:04.132Z,-1.00
2019-01-31T03:49:46.742Z,-1.10
2019-01-31T03:52:55.949Z,-1.00
2019-01-31T03:56:09.545Z,-1.00
2019-01-31T03:58:55.913Z,-0.90
2019-01-31T04:01:49.200Z,-0.90
2019-01-31T04:04:26.184Z,-0.80
2019-01-31T04:06:55.550Z,-0.90
2019-01-31T04:09:24.755Z,-1.00
2019-01-31T04:11:53.916Z,-1.00
2019-01-31T04:14:23.019Z,-1.10
2019-01-31T04:16:52.408Z,-1.30
2019-01-31T04:19:21.599Z,-1.20
2019-01-31T04:21:50.745Z,-1.10
2019-01-31T04:24:19.891Z,-1.00
2019-01-31T04:26:49.162Z,-1.10
2019-01-31T04:29:18.295Z,-1.10
2019-01-31T04:31:47.495Z,-1.20
2019-01-31T04:34:16.622Z,-1.10
2019-01-31T04:36:45.789Z,-1.10
2019-01-31T04:39:14.980Z,-1.10
2019-01-31T04:41:44.127Z,-1.10
2019-01-31T04:44:14.821Z,-1.20
2019-01-31T04:46:44.128Z,-1.20
2019-01-31T04:49:13.239Z,-1.20
2019-01-31T04:51:42.385Z,-1.20
2019-01-31T04:54:11.549Z,-1.30
2019-01-31T04:56:40.764Z,-1.20
2019-01-31T04:59:10.035Z,-1.20
2019-01-31T05:01:39.178Z,-1.10
2019-01-31T05:04:08.437Z,-1.10
2019-01-31T05:06:37.644Z,-1.10
2019-01-31T05:09:08.321Z,-1.20
2019-01-31T05:11:37.548Z,-1.20
2019-01-31T05:14:06.746Z,-1.20
2019-01-31T05:16:35.921Z,-1.00
2019-01-31T05:19:05.383Z,-1.00
2019-01-31T05:21:34.620Z,-1.20
2019-01-31T05:24:03.776Z,-1.10
2019-01-31T05:26:32.948Z,-1.10
2019-01-31T05:29:02.192Z,-1.10
2019-01-31T05:31:31.321Z,-1.10
2019-01-31T05:34:00.521Z,-1.00
2019-01-31T05:36:29.773Z,-1.00
2019-01-31T05:38:58.869Z,-1.10
2019-01-31T05:41:28.013Z,-1.00
2019-01-31T05:43:57.161Z,-1.00
2019-01-31T05:46:26.317Z,-1.00
2019-01-31T05:48:55.629Z,-1.00
2019-01-31T05:51:24.863Z,-1.00
2019-01-31T05:53:54.104Z,-0.90
2019-01-31T05:56:23.256Z,-0.90
2019-01-31T05:58:52.429Z,-1.00
2019-01-31T06:01:21.761Z,-1.10
2019-01-31T06:03:50.980Z,-1.20
2019-01-31T06:06:20.238Z,-1.20
2019-01-31T06:08:49.361Z,-1.20
2019-01-31T06:11:18.568Z,-1.20
2019-01-31T06:13:47.782Z,-1.20
2019-01-31T06:16:17.025Z,-1.10
2019-01-31T06:18:46.248Z,-1.00
2019-01-31T06:21:15.465Z,-1.00
2019-01-31T06:23:44.608Z,-1.10
2019-01-31T06:26:13.928Z,-1.00
2019-01-31T06:28:43.100Z,-1.10
2019-01-31T06:31:12.256Z,-0.90
2019-01-31T06:33:41.408Z,-1.00
2019-01-31T06:36:10.540Z,-1.00
2019-01-31T06:38:39.691Z,-0.90
2019-01-31T06:41:18.346Z,-0.80
2019-01-31T06:43:39.883Z,-0.80
2019-01-31T06:46:09.117Z,-0.80
2019-01-31T06:48:38.332Z,-0.80
2019-01-31T06:51:07.481Z,-0.90
2019-01-31T06:53:36.705Z,-0.80
2019-01-31T06:56:05.885Z,-0.80
2019-01-31T06:58:35.084Z,-0.80
2019-01-31T07:01:04.617Z,-0.70
2019-01-31T07:03:33.786Z,-0.70
2019-01-31T07:06:02.923Z,-0.70
2019-01-31T07:08:32.099Z,-0.60
2019-01-31T07:11:01.316Z,-0.60
2019-01-31T07:13:30.549Z,-0.50
2019-01-31T07:15:59.789Z,-0.50
2019-01-31T07:18:28.949Z,-0.50
2019-01-31T07:20:58.217Z,-0.40
2019-01-31T07:23:27.369Z,-0.40
2019-01-31T07:25:56.494Z,-0.40
2019-01-31T07:28:25.722Z,-0.40
2019-01-31T07:30:54.916Z,-0.50
2019-01-31T07:33:24.080Z,-0.40
2019-01-31T07:35:53.200Z,-0.40
2019-01-31T07:38:22.442Z,-0.40
2019-01-31T07:40:51.696Z,-0.40
2019-01-31T07:43:20.979Z,-0.40
2019-01-31T07:45:50.285Z,-0.40
2019-01-31T07:48:19.484Z,-0.30
2019-01-31T07:50:48.821Z,-0.30
2019-01-31T07:53:18.013Z,-0.30
2019-01-31T07:55:47.195Z,-0.20
2019-01-31T07:58:16.409Z,-0.10
2019-01-31T08:00:45.704Z,-0.10
2019-01-31T08:03:14.913Z,0.00
2019-01-31T08:05:44.059Z,0.00
2019-01-31T08:08:13.230Z,0.10
2019-01-31T08:10:43.432Z,0.10
2019-01-31T08:13:12.594Z,0.10
2019-01-31T08:15:41.804Z,0.30
2019-01-31T08:18:11.251Z,0.30
2019-01-31T08:20:40.440Z,0.40
2019-01-31T08:23:09.567Z,0.40
2019-01-31T08:25:38.767Z,0.40
2019-01-31T08:28:08.537Z,0.50
2019-01-31T08:30:39.884Z,0.50
2019-01-31T08:33:09.017Z,0.50
2019-01-31T08:35:38.140Z,0.50
2019-01-31T08:38:07.268Z,0.50
2019-01-31T08:40:36.392Z,0.50
2019-01-31T08:43:05.776Z,0.50
2019-01-31T08:45:35.121Z,0.50
2019-01-31T08:48:04.827Z,0.50
2019-01-31T08:50:34.437Z,0.50
2019-01-31T08:53:03.732Z,0.60
2019-01-31T08:55:33.101Z,0.60
2019-01-31T08:58:02.461Z,0.70
2019-01-31T09:00:31.965Z,0.70
2019-01-31T09:03:01.245Z,0.70
2019-01-31T09:05:30.524Z,0.80
2019-01-31T09:07:59.691Z,0.80
2019-01-31T09:10:31.337Z,0.60
2019-01-31T09:13:02.318Z,0.60
2019-01-31T09:15:31.536Z,0.60
2019-01-31T09:18:00.802Z,0.70
2019-01-31T09:20:59.888Z,0.70
2019-01-31T09:23:37.799Z,0.60
2019-01-31T09:26:38.653Z,0.70
2019-01-31T09:29:39.070Z,0.80
2019-01-31T09:32:56.648Z,0.90
2019-01-31T09:35:51.095Z,0.90
2019-01-31T09:39:04.815Z,1.00
2019-01-31T09:41:50.072Z,0.90
2019-01-31T09:45:09.348Z,1.10
2019-01-31T09:48:03.939Z,1.10
2019-01-31T09:51:18.548Z,1.10
2019-01-31T09:54:50.016Z,1.00
2019-01-31T09:57:56.803Z,1.10
2019-01-31T10:01:10.431Z,1.00
2019-01-31T10:04:26.612Z,0.90
2019-01-31T10:07:14.224Z,1.10
2019-01-31T10:10:18.683Z,1.10
2019-01-31T10:13:24.682Z,1.20
2019-01-31T10:16:16.250Z,1.20
2019-01-31T10:19:47.636Z,1.50
2019-01-31T10:22:31.938Z,1.60
2019-01-31T10:25:40.620Z,1.80
2019-01-31T10:28:50.717Z,1.90
2019-01-31T10:31:37.621Z,1.70
2019-01-31T10:34:29.073Z,1.80
2019-01-31T10:37:42.431Z,1.90
2019-01-31T10:40:44.633Z,1.90
2019-01-31T10:43:40.871Z,2.00
2019-01-31T10:46:26.309Z,2.10
2019-01-31T10:49:26.516Z,2.20
2019-01-31T10:52:44.005Z,2.10
2019-01-31T10:55:36.435Z,2.00
2019-01-31T10:58:52.495Z,2.10
2019-01-31T11:02:05.912Z,2.10
2019-01-31T11:05:22.300Z,2.20
2019-01-31T11:08:20.455Z,2.40
2019-01-31T11:11:03.528Z,2.30
2019-01-31T11:13:54.520Z,2.40
2019-01-31T11:17:11.009Z,2.60
2019-01-31T11:20:21.953Z,2.80
2019-01-31T11:23:01.039Z,3.20
2019-01-31T11:26:12.495Z,3.30
2019-01-31T11:29:22.628Z,3.50
2019-01-31T11:32:31.565Z,3.90
2019-01-31T11:35:41.974Z,4.20
2019-01-31T11:38:55.196Z,4.30
2019-01-31T11:41:59.315Z,4.50
2019-01-31T11:45:28.135Z,4.60
2019-01-31T11:48:12.457Z,4.70
2019-01-31T11:51:18.360Z,4.80
2019-01-31T11:54:31.909Z,4.90
2019-01-31T11:57:37.268Z,4.90
2019-01-31T12:00:07.673Z,5.00
2019-01-31T12:02:36.879Z,5.10
2019-01-31T12:05:06.610Z,5.00
2019-01-31T12:07:36.620Z,4.90
2019-01-31T12:10:06.480Z,4.80
2019-01-31T12:12:35.689Z,4.90
2019-01-31T12:15:06.057Z,4.90
2019-01-31T12:17:35.215Z,5.00
2019-01-31T12:20:05.347Z,4.90
2019-01-31T12:22:34.494Z,4.80
2019-01-31T12:25:03.835Z,4.90
2019-01-31T12:27:33.007Z,5.10
2019-01-31T12:30:02.295Z,5.20
2019-01-31T12:32:31.528Z,5.40
2019-01-31T12:35:00.677Z,5.50
2019-01-31T12:37:29.825Z,5.80
2019-01-31T12:39:59.056Z,5.80
2019-01-31T12:42:28.169Z,6.10
2019-01-31T12:44:57.304Z,6.20
2019-01-31T12:47:26.558Z,6.00
2019-01-31T12:49:55.684Z,5.70
2019-01-31T12:52:24.925Z,5.60
2019-01-31T12:54:54.207Z,5.60
2019-01-31T12:57:23.517Z,5.60
2019-01-31T12:59:52.754Z,5.60
2019-01-31T13:02:21.947Z,5.50
2019-01-31T13:04:51.088Z,5.60
2019-01-31T13:07:20.346Z,5.80
2019-01-31T13:09:49.521Z,6.00
2019-01-31T13:12:18.710Z,6.10
2019-01-31T13:14:47.855Z,6.30
2019-01-31T13:17:17.124Z,6.10
2019-01-31T13:19:46.327Z,5.90
2019-01-31T13:22:15.780Z,5.90
2019-01-31T13:24:45.161Z,5.90
2019-01-31T13:27:14.344Z,6.10
2019-01-31T13:29:43.534Z,6.10
2019-01-31T13:32:12.801Z,6.30
2019-01-31T13:34:42.006Z,6.50
2019-01-31T13:37:11.199Z,6.50
2019-01-31T13:39:40.626Z,6.60
2019-01-31T13:42:09.869Z,6.80
2019-01-31T13:44:39.210Z,6.70
2019-01-31T13:47:08.400Z,6.60
2019-01-31T13:49:37.730Z,6.60
2019-01-31T13:52:07.085Z,6.60
2019-01-31T13:54:36.353Z,6.60
2019-01-31T13:57:05.576Z,6.40
2019-01-31T13:59:34.816Z,6.20
2019-01-31T14:02:04.420Z,5.90
2019-01-31T14:04:33.560Z,5.80
2019-01-31T14:07:02.803Z,5.60
2019-01-31T14:09:32.074Z,5.50
2019-01-31T14:12:01.311Z,5.40
2019-01-31T14:14:30.575Z,5.40
2019-01-31T14:16:59.785Z,5.30
2019-01-31T14:19:29.025Z,5.20
2019-01-31T14:21:58.243Z,5.20
2019-01-31T14:24:27.420Z,5.30
2019-01-31T14:26:56.786Z,5.20
2019-01-31T14:29:26.019Z,5.20
2019-01-31T14:31:55.300Z,5.30
2019-01-31T14:34:24.597Z,5.30
2019-01-31T14:36:53.830Z,5.50
2019-01-31T14:39:22.940Z,5.50
2019-01-31T14:41:52.174Z,5.40
2019-01-31T14:44:21.497Z,5.20
2019-01-31T14:46:50.696Z,5.20
2019-01-31T14:49:19.824Z,5.20
2019-01-31T14:51:49.101Z,5.20
2019-01-31T14:54:21.205Z,5.20
2019-01-31T14:56:50.323Z,5.00
2019-01-31T14:59:19.596Z,4.90
2019-01-31T15:01:48.739Z,5.00
2019-01-31T15:04:17.971Z,5.00
2019-01-31T15:06:47.124Z,5.10
2019-01-31T15:09:16.386Z,5.00
2019-01-31T15:11:45.631Z,5.00
2019-01-31T15:14:14.850Z,5.00
2019-01-31T15:16:44.078Z,5.00
2019-01-31T15:19:13.321Z,4.90
2019-01-31T15:21:42.584Z,4.80
2019-01-31T15:24:11.798Z,4.80
2019-01-31T15:26:41.065Z,4.60
2019-01-31T15:29:10.343Z,4.60
2019-01-31T15:31:39.520Z,4.50
2019-01-31T15:34:08.745Z,4.40
2019-01-31T15:36:38.180Z,4.30
2019-01-31T15:39:09.256Z,4.30
2019-01-31T15:41:38.507Z,4.20
2019-01-31T15:44:07.772Z,4.20
2019-01-31T15:46:36.958Z,4.20
2019-01-31T15:49:06.169Z,4.00
2019-01-31T15:51:35.401Z,4.00
2019-01-31T15:54:06.897Z,4.00
2019-01-31T15:56:36.151Z,3.90
2019-01-31T15:59:05.648Z,3.80
2019-01-31T16:01:34.989Z,3.80
2019-01-31T16:04:04.391Z,3.70
2019-01-31T16:06:33.557Z,3.60
2019-01-31T16:09:04.357Z,3.60
2019-01-31T16:11:33.648Z,3.50
2019-01-31T16:14:02.915Z,3.50
2019-01-31T16:16:32.120Z,3.50
2019-01-31T16:19:01.359Z,3.50
2019-01-31T16:21:30.564Z,3.50
2019-01-31T16:24:01.248Z,3.50
2019-01-31T16:26:30.421Z,3.50
2019-01-31T16:28:59.741Z,3.40
2019-01-31T16:31:28.956Z,3.30
2019-01-31T16:33:58.164Z,3.20
2019-01-31T16:36:27.353Z,3.30
2019-01-31T16:38:56.669Z,3.20
2019-01-31T16:41:26.128Z,3.20
2019-01-31T16:43:55.347Z,3.20
2019-01-31T16:46:24.576Z,3.10
2019-01-31T16:48:53.764Z,3.10
2019-01-31T16:51:22.998Z,3.10
2019-01-31T16:53:52.367Z,3.00
2019-01-31T16:56:21.521Z,3.00
2019-01-31T16:58:50.693Z,3.00
2019-01-31T17:01:20.002Z,2.90
2019-01-31T17:03:49.179Z,2.90
2019-01-31T17:06:18.483Z,2.90
2019-01-31T17:08:48.867Z,2.90
2019-01-31T17:11:18.309Z,3.00
2019-01-31T17:13:47.699Z,3.00
2019-01-31T17:16:16.932Z,2.90
2019-01-31T17:18:46.232Z,2.90
2019-01-31T17:21:15.423Z,2.90
2019-01-31T17:23:44.726Z,2.80
2019-01-31T17:26:13.968Z,2.80
2019-01-31T17:28:43.271Z,2.80
2019-01-31T17:31:12.472Z,2.80
2019-01-31T17:33:41.840Z,2.60
2019-01-31T17:36:12.732Z,2.60
2019-01-31T17:38:41.913Z,2.50
2019-01-31T17:41:11.384Z,2.50
2019-01-31T17:43:40.622Z,2.50
2019-01-31T17:46:11.358Z,2.50
2019-01-31T17:48:40.589Z,2.40
2019-01-31T17:51:11.508Z,2.30
2019-01-31T17:53:40.759Z,2.40
2019-01-31T17:56:09.988Z,2.30
2019-01-31T17:58:39.330Z,2.40
2019-01-31T18:01:08.693Z,2.30
2019-01-31T18:03:37.871Z,2.30
2019-01-31T18:06:07.372Z,2.30
2019-01-31T18:11:12.570Z,2.30
2019-01-31T18:13:41.904Z,2.20
2019-01-31T18:16:11.208Z,2.20
2019-01-31T18:18:42.038Z,2.10
2019-01-31T18:21:13.030Z,2.10
2019-01-31T18:23:42.429Z,2.20
2019-01-31T18:26:11.772Z,2.20
2019-01-31T18:28:40.954Z,2.10
2019-01-31T18:31:10.171Z,2.10
2019-01-31T18:33:39.358Z,2.20
2019-01-31T18:36:08.634Z,2.20
2019-01-31T18:38:37.773Z,2.20
2019-01-31T18:41:07.012Z,2.20
2019-01-31T18:43:36.334Z,2.10
2019-01-31T18:46:05.577Z,2.10
2019-01-31T18:48:34.877Z,2.10
2019-01-31T18:51:04.182Z,2.00
2019-01-31T18:53:33.472Z,2.00
2019-01-31T18:56:02.831Z,2.10
2019-01-31T18:58:32.081Z,2.00
2019-01-31T19:01:01.501Z,2.00
2019-01-31T19:03:30.793Z,2.20
2019-01-31T19:06:00.131Z,2.10
2019-01-31T19:08:29.404Z,2.10
2019-01-31T19:10:58.664Z,2.10
2019-01-31T19:13:27.957Z,2.00
2019-01-31T19:16:04.793Z,2.00
2019-01-31T19:18:28.175Z,2.00
2019-01-31T19:20:57.506Z,2.00
2019-01-31T19:23:26.721Z,2.00
2019-01-31T19:25:56.213Z,2.00
2019-01-31T19:28:25.820Z,2.00
2019-01-31T19:30:55.063Z,2.10
2019-01-31T19:33:25.627Z,2.10
2019-01-31T19:35:56.063Z,2.10
2019-01-31T19:38:25.331Z,2.10
2019-01-31T19:40:57.286Z,2.20
2019-01-31T19:43:26.560Z,2.20
2019-01-31T19:45:56.210Z,2.20
2019-01-31T19:48:25.494Z,2.20
2019-01-31T19:50:55.118Z,2.20
2019-01-31T19:53:24.389Z,2.30
2019-01-31T19:55:54.868Z,2.30
2019-01-31T19:58:25.941Z,2.30
2019-01-31T20:00:55.253Z,2.40
2019-01-31T20:03:24.521Z,2.30
2019-01-31T20:05:53.797Z,2.30
2019-01-31T20:08:23.094Z,2.30
2019-01-31T20:10:52.411Z,2.30
2019-01-31T20:13:21.601Z,2.40
2019-01-31T20:15:50.900Z,2.50
2019-01-31T20:18:20.137Z,2.50
2019-01-31T20:20:49.468Z,2.60
2019-01-31T20:23:18.758Z,2.50
2019-01-31T20:25:48.026Z,2.60
2019-01-31T20:28:17.368Z,2.60
2019-01-31T20:30:46.846Z,2.60
2019-01-31T20:33:16.220Z,2.60
2019-01-31T20:35:45.605Z,2.60
2019-01-31T20:38:14.994Z,2.60
2019-01-31T20:40:44.700Z,2.60
2019-01-31T20:43:13.944Z,2.60
2019-01-31T20:45:43.216Z,2.70
2019-01-31T20:48:12.526Z,2.70
2019-01-31T20:50:43.772Z,2.70
2019-01-31T20:53:13.057Z,2.70
2019-01-31T20:55:42.809Z,2.70
2019-01-31T20:58:12.051Z,2.70
2019-01-31T21:00:46.553Z,2.70
2019-01-31T21:03:17.055Z,2.70
2019-01-31T21:05:46.370Z,2.70
2019-01-31T21:08:15.927Z,2.70
2019-01-31T21:10:45.486Z,2.70
2019-01-31T21:13:14.698Z,2.80
2019-01-31T21:15:44.020Z,2.80
2019-01-31T21:18:13.335Z,2.80
2019-01-31T21:20:42.589Z,2.70
2019-01-31T21:23:11.979Z,2.80
2019-01-31T21:25:41.113Z,2.70
2019-01-31T21:28:10.612Z,2.70
2019-01-31T21:30:41.895Z,2.70
2019-01-31T21:33:11.197Z,2.70
2019-01-31T21:35:40.654Z,2.80
2019-01-31T21:38:10.029Z,2.80
2019-01-31T21:40:39.923Z,2.90
2019-01-31T21:43:09.341Z,2.90
2019-01-31T21:45:38.822Z,2.90
2019-01-31T21:48:09.700Z,2.90
2019-01-31T21:50:38.999Z,2.90
2019-01-31T21:53:08.653Z,3.00
2019-01-31T21:55:38.437Z,3.00
2019-01-31T21:58:07.726Z,3.00
2019-01-31T22:00:36.984Z,2.90
2019-01-31T22:03:07.706Z,2.90
2019-01-31T22:05:37.363Z,3.00
2019-01-31T22:08:06.810Z,3.00
2019-01-31T22:10:36.000Z,2.90
2019-01-31T22:13:05.771Z,3.00
2019-01-31T22:15:35.012Z,3.00
2019-01-31T22:18:04.638Z,3.10
2019-01-31T22:20:33.873Z,3.10
2019-01-31T22:23:03.170Z,3.00
2019-01-31T22:25:32.420Z,3.00
2019-01-31T22:28:01.793Z,3.10
2019-01-31T22:30:33.279Z,3.10
2019-01-31T22:33:02.378Z,3.10
2019-01-31T22:35:31.517Z,3.20
2019-01-31T22:38:00.759Z,3.20
2019-01-31T22:40:30.086Z,3.20
2019-01-31T22:43:00.658Z,3.10
2019-01-31T22:45:29.752Z,3.20
2019-01-31T22:47:58.953Z,3.30
2019-01-31T22:50:28.064Z,3.30
2019-01-31T22:52:57.297Z,3.30
2019-01-31T22:55:26.775Z,3.20
2019-01-31T22:57:56.050Z,3.20
2019-01-31T23:01:03.019Z,3.20
2019-01-31T23:03:33.660Z,3.20
2019-01-31T23:06:02.823Z,3.20
2019-01-31T23:08:31.995Z,3.30
2019-01-31T23:11:01.191Z,3.30
2019-01-31T23:13:30.344Z,3.30
2019-01-31T23:15:59.598Z,3.40
2019-01-31T23:18:28.809Z,3.40
2019-01-31T23:20:59.456Z,3.30
2019-01-31T23:23:28.553Z,3.40
2019-01-31T23:25:57.638Z,3.40
2019-01-31T23:28:27.975Z,3.40
2019-01-31T23:30:57.207Z,3.50
2019-01-31T23:33:26.387Z,3.50
2019-01-31T23:35:55.563Z,3.40
2019-01-31T23:38:24.811Z,3.50
2019-01-31T23:40:53.970Z,3.50
2019-01-31T23:43:23.085Z,3.60
2019-01-31T23:45:52.257Z,3.60
2019-01-31T23:48:21.520Z,3.50
2019-01-31T23:50:50.698Z,3.60
2019-01-31T23:53:20.074Z,3.60
2019-01-31T23:55:49.317Z,3.60
2019-01-31T23:58:18.562Z,3.60
